createdAt,value
2022-10-13T00:00:06.794Z,96849.47
2022-10-13T00:02:33.273Z,96844.19
2022-10-13T00:04:59.713Z,96840.00
2022-10-13T00:07:26.237Z,96841.88
2022-10-13T00:09:52.702Z,96841.44
2022-10-13T00:12:19.404Z,96845.28
2022-10-13T00:14:46.103Z,96847.94
2022-10-13T00:17:12.524Z,96847.50
2022-10-13T00:19:39.024Z,96845.56
2022-10-13T00:22:05.561Z,96844.09
2022-10-13T00:24:32.063Z,96842.22
2022-10-13T00:26:58.493Z,96845.97
2022-10-13T00:29:25.194Z,96839.50
2022-10-13T00:31:51.646Z,96844.00
2022-10-13T00:34:18.116Z,96840.59
2022-10-13T00:36:44.560Z,96841.72
2022-10-13T00:39:10.997Z,96839.75
2022-10-13T00:41:37.477Z,96829.75
2022-10-13T00:44:07.099Z,96826.19
2022-10-13T00:46:36.169Z,96834.53
2022-10-13T00:49:09.722Z,96839.84
2022-10-13T00:51:40.860Z,96832.59
2022-10-13T00:54:10.278Z,96818.50
2022-10-13T00:56:38.812Z,96819.19
2022-10-13T00:59:10.601Z,96804.31
2022-10-13T01:01:37.964Z,96810.09
2022-10-13T01:04:04.529Z,96806.34
2022-10-13T01:06:31.043Z,96813.47
2022-10-13T01:08:57.523Z,96821.41
2022-10-13T01:11:39.386Z,96820.19
2022-10-13T01:14:30.588Z,96822.81
2022-10-13T01:17:28.055Z,96810.38
2022-10-13T01:19:57.478Z,96809.94
2022-10-13T01:22:51.743Z,96809.84
2022-10-13T01:25:40.671Z,96804.56
2022-10-13T01:28:55.350Z,96812.50
2022-10-13T01:31:53.991Z,96810.97
2022-10-13T01:34:41.255Z,96809.09
2022-10-13T01:37:32.976Z,96810.28
2022-10-13T01:40:02.214Z,96812.91
2022-10-13T01:42:57.292Z,96805.78
2022-10-13T01:45:30.585Z,96800.81
2022-10-13T01:48:00.855Z,96804.22
2022-10-13T01:50:28.365Z,96806.78
2022-10-13T01:52:55.746Z,96809.44
2022-10-13T01:55:22.292Z,96806.03
2022-10-13T01:57:48.783Z,96808.22
2022-10-13T02:00:18.714Z,96802.94
2022-10-13T02:03:20.481Z,96808.94
2022-10-13T02:05:57.402Z,96806.19
2022-10-13T02:08:48.541Z,96802.84
2022-10-13T02:11:18.246Z,96803.19
2022-10-13T02:13:54.345Z,96809.25
2022-10-13T02:16:23.551Z,96797.47
2022-10-13T02:18:51.389Z,96795.25
2022-10-13T02:21:18.418Z,96792.19
2022-10-13T02:23:45.885Z,96803.44
2022-10-13T02:26:13.932Z,96798.06
2022-10-13T02:28:41.166Z,96796.88
2022-10-13T02:31:08.585Z,96793.72
2022-10-13T02:33:35.127Z,96792.94
2022-10-13T02:36:01.598Z,96791.31
2022-10-13T02:38:28.048Z,96784.22
2022-10-13T02:40:55.014Z,96797.19
2022-10-13T02:43:21.486Z,96793.59
2022-10-13T02:45:47.968Z,96796.66
2022-10-13T02:48:14.530Z,96797.34
2022-10-13T02:50:40.980Z,96792.31
2022-10-13T02:53:07.465Z,96797.06
2022-10-13T02:55:33.940Z,96799.19
2022-10-13T02:58:00.445Z,96793.34
2022-10-13T03:00:27.114Z,96794.47
2022-10-13T03:02:54.328Z,96806.91
2022-10-13T03:05:20.833Z,96803.09
2022-10-13T03:07:47.270Z,96807.50
2022-10-13T03:10:13.815Z,96800.47
2022-10-13T03:12:40.320Z,96800.06
2022-10-13T03:15:07.455Z,96803.22
2022-10-13T03:17:33.908Z,96801.69
2022-10-13T03:20:00.423Z,96793.75
2022-10-13T03:22:26.913Z,96801.34
2022-10-13T03:24:53.401Z,96799.38
2022-10-13T03:27:20.790Z,96805.75
2022-10-13T03:29:47.325Z,96795.53
2022-10-13T03:32:13.843Z,96796.13
2022-10-13T03:34:40.311Z,96795.53
2022-10-13T03:37:06.773Z,96801.59
2022-10-13T03:39:34.673Z,96792.91
2022-10-13T03:42:01.144Z,96794.06
2022-10-13T03:44:27.701Z,96789.28
2022-10-13T03:46:54.169Z,96805.56
2022-10-13T03:49:20.702Z,96798.22
2022-10-13T03:51:47.467Z,96795.91
2022-10-13T03:54:14.699Z,96788.22
2022-10-13T03:56:41.505Z,96792.19
2022-10-13T03:59:08.589Z,96788.78
2022-10-13T04:01:35.183Z,96788.78
2022-10-13T04:04:02.693Z,96779.56
2022-10-13T04:06:30.597Z,96784.50
2022-10-13T04:08:57.521Z,96787.16
2022-10-13T04:11:24.268Z,96780.22
2022-10-13T04:13:51.569Z,96781.00
2022-10-13T04:16:25.813Z,96784.75
2022-10-13T04:18:55.376Z,96775.28
2022-10-13T04:21:22.641Z,96779.28
2022-10-13T04:23:49.626Z,96774.22
2022-10-13T04:26:18.961Z,96773.09
2022-10-13T04:28:46.691Z,96762.78
2022-10-13T04:31:13.760Z,96780.19
2022-10-13T04:33:40.306Z,96778.63
2022-10-13T04:36:09.209Z,96772.50
2022-10-13T04:38:36.135Z,96778.63
2022-10-13T04:41:05.025Z,96788.09
2022-10-13T04:43:32.500Z,96789.06
2022-10-13T04:46:07.633Z,96787.97
2022-10-13T04:48:34.332Z,96778.72
2022-10-13T04:51:06.684Z,96792.16
2022-10-13T04:53:33.687Z,96785.00
2022-10-13T04:56:07.026Z,96787.66
2022-10-13T04:58:33.563Z,96782.78
2022-10-13T05:01:00.120Z,96783.56
2022-10-13T05:03:27.096Z,96790.81
2022-10-13T05:05:54.038Z,96785.53
2022-10-13T05:08:21.104Z,96796.53
2022-10-13T05:10:54.653Z,96792.59
2022-10-13T05:13:21.109Z,96792.69
2022-10-13T05:15:47.884Z,96796.53
2022-10-13T05:18:14.431Z,96796.19
2022-10-13T05:20:40.913Z,96782.44
2022-10-13T05:23:07.421Z,96782.78
2022-10-13T05:25:38.162Z,96786.88
2022-10-13T05:28:06.206Z,96794.81
2022-10-13T05:30:33.618Z,96787.97
2022-10-13T05:33:00.254Z,96785.53
2022-10-13T05:35:27.680Z,96779.16
2022-10-13T05:37:54.222Z,96778.84
2022-10-13T05:40:23.356Z,96784.56
2022-10-13T05:42:51.066Z,96787.19
2022-10-13T05:45:19.569Z,96786.75
2022-10-13T05:47:46.108Z,96791.72
2022-10-13T05:50:12.698Z,96794.47
2022-10-13T05:52:39.380Z,96787.31
2022-10-13T05:55:10.187Z,96795.09
2022-10-13T05:57:41.100Z,96785.75
2022-10-13T06:00:16.671Z,96803.00
2022-10-13T06:02:49.177Z,96796.06
2022-10-13T06:05:18.631Z,96798.13
2022-10-13T06:07:46.149Z,96796.66
2022-10-13T06:10:13.082Z,96803.69
2022-10-13T06:12:39.567Z,96794.31
2022-10-13T06:15:06.576Z,96794.94
2022-10-13T06:17:36.955Z,96807.69
2022-10-13T06:20:06.111Z,96797.56
2022-10-13T06:22:34.297Z,96810.72
2022-10-13T06:25:01.157Z,96803.22
2022-10-13T06:27:27.816Z,96793.50
2022-10-13T06:29:54.401Z,96806.47
2022-10-13T06:32:21.327Z,96807.84
2022-10-13T06:34:48.109Z,96801.44
2022-10-13T06:37:14.581Z,96796.25
2022-10-13T06:39:41.125Z,96788.44
2022-10-13T06:42:07.846Z,96797.47
2022-10-13T06:44:34.352Z,96797.50
2022-10-13T06:47:01.044Z,96796.03
2022-10-13T06:49:27.512Z,96795.06
2022-10-13T06:51:53.982Z,96797.50
2022-10-13T06:54:20.815Z,96788.66
2022-10-13T06:56:47.306Z,96799.75
2022-10-13T06:59:14.006Z,96806.28
2022-10-13T07:01:41.728Z,96787.75
2022-10-13T07:04:09.434Z,96799.56
2022-10-13T07:06:35.877Z,96787.22
2022-10-13T07:09:06.708Z,96792.53
2022-10-13T07:11:33.384Z,96793.06
2022-10-13T07:14:02.908Z,96790.00
2022-10-13T07:16:29.439Z,96787.91
2022-10-13T07:18:55.933Z,96792.88
2022-10-13T07:21:22.898Z,96792.94
2022-10-13T07:23:49.359Z,96798.81
2022-10-13T07:26:16.239Z,96798.22
2022-10-13T07:28:44.138Z,96798.91
2022-10-13T07:31:16.677Z,96795.50
2022-10-13T07:33:45.501Z,96794.56
2022-10-13T07:36:13.141Z,96790.25
2022-10-13T07:38:40.644Z,96787.25
2022-10-13T07:41:09.339Z,96788.66
2022-10-13T07:43:35.933Z,96787.59
2022-10-13T07:46:06.540Z,96790.78
2022-10-13T07:48:34.110Z,96799.22
2022-10-13T07:51:04.896Z,96793.81
2022-10-13T07:53:31.393Z,96797.78
2022-10-13T07:56:01.461Z,96793.28
2022-10-13T07:58:28.529Z,96796.72
2022-10-13T08:01:02.490Z,96787.31
2022-10-13T08:03:29.692Z,96793.47
2022-10-13T08:05:59.265Z,96794.59
2022-10-13T08:08:25.844Z,96791.22
2022-10-13T08:13:23.733Z,96783.38
2022-10-13T08:15:50.249Z,96793.41
2022-10-13T08:18:16.696Z,96779.75
2022-10-13T08:20:45.649Z,96789.41
2022-10-13T08:23:13.603Z,96791.88
2022-10-13T08:25:41.186Z,96785.91
2022-10-13T08:28:15.856Z,96786.22
2022-10-13T08:32:41.525Z,96787.03
2022-10-13T08:35:09.219Z,96789.91
2022-10-13T08:37:35.953Z,96796.06
2022-10-13T08:40:02.748Z,96788.59
2022-10-13T08:42:29.370Z,96777.91
2022-10-13T08:45:22.195Z,96789.53
2022-10-13T08:47:50.655Z,96782.78
2022-10-13T08:50:27.089Z,96788.47
2022-10-13T08:52:57.933Z,96773.66
2022-10-13T08:55:44.317Z,96776.63
2022-10-13T08:58:41.830Z,96780.53
2022-10-13T09:01:23.868Z,96771.44
2022-10-13T09:03:54.461Z,96773.00
2022-10-13T09:06:32.483Z,96771.69
2022-10-13T09:09:00.201Z,96768.44
2022-10-13T09:11:34.290Z,96767.88
2022-10-13T09:14:07.739Z,96766.03
2022-10-13T09:16:38.282Z,96768.28
2022-10-13T09:19:25.075Z,96771.34
2022-10-13T09:21:54.986Z,96768.31
2022-10-13T09:24:23.834Z,96772.84
2022-10-13T09:27:03.093Z,96767.91
2022-10-13T09:29:29.861Z,96775.19
2022-10-13T09:32:19.891Z,96768.41
2022-10-13T09:34:46.878Z,96753.25
2022-10-13T09:37:22.074Z,96767.91
2022-10-13T09:40:20.638Z,96767.19
2022-10-13T09:42:54.179Z,96769.59
2022-10-13T09:45:23.431Z,96770.50
2022-10-13T09:48:17.235Z,96764.00
2022-10-13T09:50:49.601Z,96769.41
2022-10-13T09:53:32.116Z,96770.50
2022-10-13T09:56:14.986Z,96763.66
2022-10-13T09:58:50.791Z,96767.53
2022-10-13T10:01:28.074Z,96770.16
2022-10-13T10:03:56.865Z,96771.25
2022-10-13T10:06:26.993Z,96764.09
2022-10-13T10:09:04.236Z,96773.22
2022-10-13T10:11:39.625Z,96767.19
2022-10-13T10:14:27.878Z,96766.84
2022-10-13T10:17:09.514Z,96769.94
2022-10-13T10:20:14.489Z,96766.94
2022-10-13T10:22:43.660Z,96760.88
2022-10-13T10:25:29.980Z,96758.25
2022-10-13T10:28:22.581Z,96754.03
2022-10-13T10:31:01.914Z,96745.66
2022-10-13T10:34:05.421Z,96756.69
2022-10-13T10:36:43.747Z,96746.81
2022-10-13T10:39:31.861Z,96738.25
2022-10-13T10:42:11.630Z,96736.75
2022-10-13T10:44:44.290Z,96743.63
2022-10-13T10:47:23.390Z,96725.69
2022-10-13T10:49:55.180Z,96728.78
2022-10-13T10:52:27.526Z,96719.72
2022-10-13T10:55:02.713Z,96707.13
2022-10-13T10:58:09.980Z,96713.94
2022-10-13T11:00:46.317Z,96716.66
2022-10-13T11:03:57.528Z,96717.78
2022-10-13T11:06:24.339Z,96708.69
2022-10-13T11:08:50.871Z,96693.84
2022-10-13T11:11:24.921Z,96696.09
2022-10-13T11:13:57.688Z,96690.34
2022-10-13T11:16:41.099Z,96684.72
2022-10-13T11:19:34.860Z,96691.94
2022-10-13T11:22:01.253Z,96686.22
2022-10-13T11:24:33.600Z,96687.75
2022-10-13T11:27:23.048Z,96684.31
2022-10-13T11:29:55.311Z,96693.91
2022-10-13T11:32:28.190Z,96697.72
2022-10-13T11:35:06.629Z,96700.34
2022-10-13T11:37:51.711Z,96710.59
2022-10-13T11:40:53.041Z,96679.72
2022-10-13T11:43:44.477Z,96685.50
2022-10-13T11:46:51.026Z,96685.09
2022-10-13T11:49:41.808Z,96682.81
2022-10-13T11:52:36.049Z,96687.00
2022-10-13T11:55:10.778Z,96672.13
2022-10-13T11:57:37.260Z,96665.25
2022-10-13T12:00:04.628Z,96656.50
2022-10-13T12:02:31.158Z,96661.81
2022-10-13T12:05:20.929Z,96664.44
2022-10-13T12:07:50.250Z,96649.56
2022-10-13T12:10:24.284Z,96658.72
2022-10-13T12:12:51.603Z,96649.59
2022-10-13T12:15:30.374Z,96646.94
2022-10-13T12:17:56.899Z,96644.63
2022-10-13T12:20:29.134Z,96638.94
2022-10-13T12:22:56.809Z,96642.38
2022-10-13T12:25:29.518Z,96637.47
2022-10-13T12:27:58.837Z,96640.53
2022-10-13T12:30:36.220Z,96631.38
2022-10-13T12:33:04.913Z,96632.53
2022-10-13T12:35:34.073Z,96623.00
2022-10-13T12:38:03.340Z,96620.31
2022-10-13T12:40:30.061Z,96623.78
2022-10-13T12:42:56.933Z,96615.72
2022-10-13T12:45:27.957Z,96612.97
2022-10-13T12:47:55.125Z,96621.41
2022-10-13T12:50:28.081Z,96616.09
2022-10-13T12:53:17.161Z,96616.13
2022-10-13T12:55:55.224Z,96607.75
2022-10-13T12:58:25.482Z,96597.44
2022-10-13T13:00:58.182Z,96599.75
2022-10-13T13:03:28.809Z,96593.25
2022-10-13T13:06:13.393Z,96594.03
2022-10-13T13:08:44.369Z,96600.13
2022-10-13T13:11:33.766Z,96597.84
2022-10-13T13:14:53.651Z,96599.00
2022-10-13T13:20:27.375Z,96601.25
2022-10-13T13:22:54.525Z,96587.53
2022-10-13T13:25:21.408Z,96602.78
2022-10-13T13:27:48.241Z,96589.84
2022-10-13T13:30:18.863Z,96594.78
2022-10-13T13:32:45.323Z,96597.06
2022-10-13T13:35:12.099Z,96589.06
2022-10-13T13:37:47.835Z,96578.00
2022-10-13T13:40:18.236Z,96582.97
2022-10-13T13:42:44.809Z,96563.53
2022-10-13T13:45:15.336Z,96549.03
2022-10-13T13:47:42.333Z,96561.63
2022-10-13T13:50:20.319Z,96557.44
2022-10-13T13:52:46.816Z,96565.03
2022-10-13T13:55:13.370Z,96562.38
2022-10-13T13:57:39.919Z,96561.63
2022-10-13T14:00:06.949Z,96558.19
2022-10-13T14:02:33.455Z,96561.22
2022-10-13T14:04:59.909Z,96556.25
2022-10-13T14:07:26.635Z,96557.41
2022-10-13T14:09:53.774Z,96550.53
2022-10-13T14:12:22.350Z,96550.88
2022-10-13T14:14:49.002Z,96550.88
2022-10-13T14:17:15.515Z,96548.16
2022-10-13T14:19:42.346Z,96552.31
2022-10-13T14:22:09.669Z,96550.75
2022-10-13T14:24:36.261Z,96546.16
2022-10-13T14:27:02.729Z,96543.47
2022-10-13T14:29:29.361Z,96542.38
2022-10-13T14:31:55.829Z,96543.91
2022-10-13T14:34:22.564Z,96538.19
2022-10-13T14:36:49.062Z,96536.66
2022-10-13T14:39:15.610Z,96547.31
2022-10-13T14:41:42.092Z,96546.19
2022-10-13T14:44:11.806Z,96537.78
2022-10-13T14:46:38.279Z,96538.53
2022-10-13T14:49:04.726Z,96547.25
2022-10-13T14:51:32.177Z,96534.69
2022-10-13T14:53:59.180Z,96538.81
2022-10-13T14:56:29.639Z,96540.03
2022-10-13T14:59:00.799Z,96531.97
2022-10-13T15:01:27.788Z,96528.84
2022-10-13T15:03:54.423Z,96530.38
2022-10-13T15:06:23.827Z,96527.31
2022-10-13T15:08:50.912Z,96525.38
2022-10-13T15:11:19.595Z,96524.63
2022-10-13T15:13:46.494Z,96523.06
2022-10-13T15:16:24.685Z,96529.47
2022-10-13T15:18:51.202Z,96531.00
2022-10-13T15:21:18.660Z,96524.13
2022-10-13T15:23:45.426Z,96521.81
2022-10-13T15:26:13.737Z,96527.13
2022-10-13T15:28:42.986Z,96529.03
2022-10-13T15:31:09.797Z,96529.72
2022-10-13T15:33:36.373Z,96524.38
2022-10-13T15:36:03.690Z,96522.81
2022-10-13T15:38:30.258Z,96524.34
2022-10-13T15:41:00.580Z,96519.34
2022-10-13T15:43:27.215Z,96521.53
2022-10-13T15:45:55.901Z,96520.75
2022-10-13T15:48:22.495Z,96512.31
2022-10-13T15:50:49.349Z,96518.34
2022-10-13T15:53:15.790Z,96511.03
2022-10-13T15:55:42.276Z,96524.31
2022-10-13T15:58:12.835Z,96513.66
2022-10-13T16:00:41.597Z,96506.34
2022-10-13T16:03:12.326Z,96517.66
2022-10-13T16:05:41.639Z,96514.59
2022-10-13T16:08:08.126Z,96522.13
2022-10-13T16:10:34.754Z,96514.81
2022-10-13T16:13:01.175Z,96518.53
2022-10-13T16:15:29.123Z,96511.94
2022-10-13T16:17:55.568Z,96505.44
2022-10-13T16:20:22.238Z,96515.59
2022-10-13T16:22:48.779Z,96515.56
2022-10-13T16:25:15.584Z,96516.25
2022-10-13T16:27:44.464Z,96528.31
2022-10-13T16:30:11.832Z,96522.97
2022-10-13T16:32:39.479Z,96534.63
2022-10-13T16:35:07.176Z,96529.63
2022-10-13T16:37:33.806Z,96527.28
2022-10-13T16:40:00.264Z,96523.75
2022-10-13T16:42:26.718Z,96521.81
2022-10-13T16:44:53.354Z,96527.13
2022-10-13T16:47:20.128Z,96523.66
2022-10-13T16:49:47.365Z,96518.97
2022-10-13T16:52:14.027Z,96519.66
2022-10-13T16:54:40.488Z,96526.88
2022-10-13T16:57:06.932Z,96529.88
2022-10-13T16:59:33.408Z,96523.34
2022-10-13T17:01:59.899Z,96525.94
2022-10-13T17:04:26.395Z,96534.97
2022-10-13T17:06:53.005Z,96534.56
2022-10-13T17:09:19.533Z,96529.97
2022-10-13T17:11:46.729Z,96532.53
2022-10-13T17:14:13.227Z,96531.41
2022-10-13T17:16:39.774Z,96537.38
2022-10-13T17:19:07.309Z,96533.91
2022-10-13T17:21:33.849Z,96526.25
2022-10-13T17:24:00.473Z,96523.50
2022-10-13T17:26:26.981Z,96529.88
2022-10-13T17:28:54.115Z,96514.84
2022-10-13T17:31:22.768Z,96527.88
2022-10-13T17:33:50.058Z,96530.44
2022-10-13T17:36:25.630Z,96525.44
2022-10-13T17:38:53.532Z,96531.41
2022-10-13T17:41:20.790Z,96539.56
2022-10-13T17:43:48.468Z,96525.84
2022-10-13T17:46:37.956Z,96528.78
2022-10-13T17:49:06.470Z,96522.66
2022-10-13T17:51:32.996Z,96523.66
2022-10-13T17:54:00.519Z,96527.75
2022-10-13T17:56:27.679Z,96522.75
2022-10-13T17:58:54.286Z,96521.50
2022-10-13T18:01:22.081Z,96520.56
2022-10-13T18:03:51.787Z,96531.09
2022-10-13T18:06:19.965Z,96529.50
2022-10-13T18:08:46.864Z,96530.09
2022-10-13T18:11:16.035Z,96534.22
2022-10-13T18:13:43.517Z,96529.59
2022-10-13T18:16:14.796Z,96521.47
2022-10-13T18:18:43.925Z,96530.59
2022-10-13T18:21:12.630Z,96529.41
2022-10-13T18:23:39.626Z,96542.22
2022-10-13T18:26:12.108Z,96533.78
2022-10-13T18:28:45.569Z,96534.09
2022-10-13T18:31:22.962Z,96530.16
2022-10-13T18:33:50.238Z,96529.03
2022-10-13T18:36:25.937Z,96526.72
2022-10-13T18:38:54.784Z,96523.66
2022-10-13T18:41:23.333Z,96528.53
2022-10-13T18:43:50.675Z,96527.19
2022-10-13T18:46:17.176Z,96528.31
2022-10-13T18:48:43.736Z,96517.91
2022-10-13T18:51:13.818Z,96531.91
2022-10-13T18:53:42.457Z,96525.41
2022-10-13T18:56:12.807Z,96526.13
2022-10-13T18:58:40.110Z,96523.75
2022-10-13T19:01:09.763Z,96520.91
2022-10-13T19:03:37.669Z,96522.03
2022-10-13T19:06:05.978Z,96521.69
2022-10-13T19:08:33.110Z,96497.59
2022-10-13T19:10:59.623Z,96511.72
2022-10-13T19:13:27.697Z,96514.88
2022-10-13T19:16:01.733Z,96503.72
2022-10-13T19:18:28.367Z,96503.97
2022-10-13T19:20:54.829Z,96507.94
2022-10-13T19:23:22.028Z,96507.13
2022-10-13T19:25:49.037Z,96504.34
2022-10-13T19:28:16.572Z,96508.84
2022-10-13T19:30:43.562Z,96506.88
2022-10-13T19:33:11.740Z,96515.50
2022-10-13T19:35:43.564Z,96509.00
2022-10-13T19:38:10.814Z,96505.88
2022-10-13T19:40:42.397Z,96511.16
2022-10-13T19:43:10.095Z,96506.13
2022-10-13T19:45:36.675Z,96502.19
2022-10-13T19:48:03.172Z,96500.31
2022-10-13T19:50:33.472Z,96498.28
2022-10-13T19:52:59.925Z,96496.56
2022-10-13T19:55:26.362Z,96497.56
2022-10-13T19:57:52.831Z,96499.03
2022-10-13T20:00:19.353Z,96495.88
2022-10-13T20:02:45.814Z,96496.19
2022-10-13T20:05:12.389Z,96502.25
2022-10-13T20:07:38.907Z,96493.03
2022-10-13T20:10:05.774Z,96508.28
2022-10-13T20:12:32.247Z,96499.94
2022-10-13T20:14:58.685Z,96501.47
2022-10-13T20:17:25.178Z,96504.56
2022-10-13T20:19:51.685Z,96502.69
2022-10-13T20:22:18.172Z,96496.97
2022-10-13T20:24:44.751Z,96487.75
2022-10-13T20:27:11.418Z,96493.03
2022-10-13T20:29:38.134Z,96483.19
2022-10-13T20:32:04.723Z,96496.13
2022-10-13T20:34:31.386Z,96489.28
2022-10-13T20:36:57.829Z,96489.63
2022-10-13T20:39:24.391Z,96482.38
2022-10-13T20:41:50.861Z,96492.50
2022-10-13T20:44:17.352Z,96497.44
2022-10-13T20:46:43.856Z,96495.56
2022-10-13T20:49:11.957Z,96498.88
2022-10-13T20:51:40.054Z,96492.75
2022-10-13T20:54:06.786Z,96494.63
2022-10-13T20:56:33.592Z,96500.22
2022-10-13T20:59:05.743Z,96498.69
2022-10-13T21:01:32.928Z,96497.84
2022-10-13T21:03:59.469Z,96502.34
2022-10-13T21:06:27.138Z,96483.09
2022-10-13T21:08:53.969Z,96480.38
2022-10-13T21:11:22.377Z,96491.00
2022-10-13T21:13:49.717Z,96492.56
2022-10-13T21:16:23.859Z,96493.75
2022-10-13T21:18:51.661Z,96486.84
2022-10-13T21:21:24.485Z,96485.56
2022-10-13T21:23:52.867Z,96494.00
2022-10-13T21:26:21.823Z,96495.09
2022-10-13T21:28:50.122Z,96487.84
2022-10-13T21:31:18.447Z,96485.56
2022-10-13T21:33:45.134Z,96472.25
2022-10-13T21:36:14.481Z,96494.47
2022-10-13T21:38:42.455Z,96487.25
2022-10-13T21:41:10.829Z,96496.34
2022-10-13T21:43:37.744Z,96495.91
2022-10-13T21:46:25.351Z,96491.06
2022-10-13T21:48:54.421Z,96489.66
2022-10-13T21:51:24.527Z,96487.66
2022-10-13T21:53:53.956Z,96490.06
2022-10-13T21:56:21.747Z,96488.59
2022-10-13T21:58:49.107Z,96481.16
2022-10-13T22:01:19.834Z,96480.94
2022-10-13T22:03:47.844Z,96475.34
2022-10-13T22:06:19.018Z,96482.50
2022-10-13T22:08:48.354Z,96473.91
2022-10-13T22:11:15.680Z,96475.88
2022-10-13T22:13:42.421Z,96477.22
2022-10-13T22:16:11.887Z,96480.38
2022-10-13T22:18:38.370Z,96480.88
2022-10-13T22:21:07.610Z,96483.34
2022-10-13T22:23:34.441Z,96483.03
2022-10-13T22:26:00.875Z,96486.31
2022-10-13T22:28:27.448Z,96469.22
2022-10-13T22:30:53.955Z,96469.84
2022-10-13T22:33:20.781Z,96482.78
2022-10-13T22:35:47.323Z,96478.25
2022-10-13T22:38:14.707Z,96480.22
2022-10-13T22:40:41.846Z,96475.28
2022-10-13T22:43:08.843Z,96470.44
2022-10-13T22:45:35.392Z,96466.25
2022-10-13T22:48:02.389Z,96468.53
2022-10-13T22:50:29.547Z,96470.81
2022-10-13T22:52:56.462Z,96469.41
2022-10-13T22:55:22.973Z,96470.25
2022-10-13T22:57:49.414Z,96472.56
2022-10-13T23:00:16.366Z,96474.84
2022-10-13T23:02:42.816Z,96476.06
2022-10-13T23:05:09.494Z,96471.53
2022-10-13T23:07:36.001Z,96476.97
2022-10-13T23:10:02.469Z,96469.00
2022-10-13T23:12:28.909Z,96478.94
2022-10-13T23:14:55.448Z,96460.88
2022-10-13T23:17:22.271Z,96468.03
2022-10-13T23:19:48.898Z,96465.16
2022-10-13T23:22:15.336Z,96458.75
2022-10-13T23:24:41.811Z,96455.03
2022-10-13T23:27:08.242Z,96444.47
2022-10-13T23:29:34.698Z,96442.91
2022-10-13T23:32:01.321Z,96448.28
2022-10-13T23:34:29.325Z,96446.84
2022-10-13T23:36:55.825Z,96444.28
2022-10-13T23:39:22.502Z,96447.78
2022-10-13T23:41:49.110Z,96442.09
2022-10-13T23:44:15.564Z,96447.69
2022-10-13T23:46:42.021Z,96441.59
2022-10-13T23:49:11.782Z,96450.41
2022-10-13T23:51:38.250Z,96452.44
2022-10-13T23:54:04.773Z,96442.25
2022-10-13T23:56:31.222Z,96454.84
2022-10-13T23:58:57.683Z,96453.25
